Time;durP1;ratioP1;P1;durP2;ratioP2;P2;SDS_P1;SDS_P2;PMS_P1;PMS_P2;Temp;Humidity;BMP_temperature;BMP_pressure;BME280_temperature;BME280_humidity;BME280_pressure;Samples;Min_cycle;Max_cycle;Signal;HPM_P1;HPM_P2
2020/01/06 00:00:33;;;;;;;16.2;8.6;;;;;;;;;;;;;
2020/01/06 00:02:58;;;;;;;19.9;10.9;;;;;;;;;;;;;
2020/01/06 00:05:23;;;;;;;17.7;10.8;;;;;;;;;;;;;
2020/01/06 00:07:48;;;;;;;19.1;10.1;;;;;;;;;;;;;
2020/01/06 00:10:14;;;;;;;14.1;8.7;;;;;;;;;;;;;
2020/01/06 00:12:39;;;;;;;14.7;8.9;;;;;;;;;;;;;
2020/01/06 00:15:04;;;;;;;16.4;9.5;;;;;;;;;;;;;
2020/01/06 00:17:29;;;;;;;15.7;8.9;;;;;;;;;;;;;
2020/01/06 00:19:54;;;;;;;14.1;7.9;;;;;;;;;;;;;
2020/01/06 00:22:19;;;;;;;13.6;7.6;;;;;;;;;;;;;
2020/01/06 00:24:44;;;;;;;14.2;7.7;;;;;;;;;;;;;
2020/01/06 00:27:10;;;;;;;15.5;8.3;;;;;;;;;;;;;
2020/01/06 00:29:35;;;;;;;17.6;8.5;;;;;;;;;;;;;
2020/01/06 00:32:00;;;;;;;12.5;6.8;;;;;;;;;;;;;
2020/01/06 00:34:25;;;;;;;11.7;7.2;;;;;;;;;;;;;
2020/01/06 00:36:50;;;;;;;11.7;6.1;;;;;;;;;;;;;
2020/01/06 00:39:48;;;;;;;9.7;5.9;;;;;;;;;;;;;
2020/01/06 00:41:40;;;;;;;9.2;5.4;;;;;;;;;;;;;
2020/01/06 00:44:22;;;;;;;9.3;5.4;;;;;;;;;;;;;
2020/01/06 00:46:31;;;;;;;10.5;6.2;;;;;;;;;;;;;
2020/01/06 00:48:56;;;;;;;9.4;5.7;;;;;;;;;;;;;
2020/01/06 00:51:21;;;;;;;9.2;5.8;;;;;;;;;;;;;
2020/01/06 00:53:46;;;;;;;10.3;6.1;;;;;;;;;;;;;
2020/01/06 00:56:11;;;;;;;11.7;6.7;;;;;;;;;;;;;
2020/01/06 00:58:36;;;;;;;10.9;6.8;;;;;;;;;;;;;
2020/01/06 01:01:03;;;;;;;14.8;7.6;;;;;;;;;;;;;
2020/01/06 01:03:26;;;;;;;11.4;6.8;;;;;;;;;;;;;
2020/01/06 01:05:51;;;;;;;9.8;6.3;;;;;;;;;;;;;
2020/01/06 01:08:17;;;;;;;11;6;;;;;;;;;;;;;
2020/01/06 01:10:42;;;;;;;9.1;5.6;;;;;;;;;;;;;
2020/01/06 01:13:07;;;;;;;8.6;5;;;;;;;;;;;;;
2020/01/06 01:15:32;;;;;;;9.3;5.4;;;;;;;;;;;;;
2020/01/06 01:17:57;;;;;;;8.4;5.2;;;;;;;;;;;;;
2020/01/06 01:20:22;;;;;;;9;5;;;;;;;;;;;;;
2020/01/06 01:22:47;;;;;;;7.3;5;;;;;;;;;;;;;
2020/01/06 01:25:12;;;;;;;6.7;4.5;;;;;;;;;;;;;
2020/01/06 01:27:37;;;;;;;5.9;3.9;;;;;;;;;;;;;
2020/01/06 01:30:03;;;;;;;5.8;3.5;;;;;;;;;;;;;
2020/01/06 01:32:28;;;;;;;7.2;4;;;;;;;;;;;;;
2020/01/06 01:34:53;;;;;;;7;4.1;;;;;;;;;;;;;
2020/01/06 01:37:18;;;;;;;5.9;3;;;;;;;;;;;;;
2020/01/06 01:39:43;;;;;;;5.2;2.8;;;;;;;;;;;;;
2020/01/06 01:42:08;;;;;;;3;2.2;;;;;;;;;;;;;
2020/01/06 01:44:34;;;;;;;4.5;2.4;;;;;;;;;;;;;
2020/01/06 01:46:59;;;;;;;4.3;2.1;;;;;;;;;;;;;
2020/01/06 01:49:24;;;;;;;3.7;2.4;;;;;;;;;;;;;
2020/01/06 01:51:49;;;;;;;4.9;2.4;;;;;;;;;;;;;
2020/01/06 01:54:14;;;;;;;4;2.5;;;;;;;;;;;;;
2020/01/06 01:56:39;;;;;;;4.1;2.2;;;;;;;;;;;;;
2020/01/06 01:59:04;;;;;;;5;2.3;;;;;;;;;;;;;
2020/01/06 02:01:29;;;;;;;3.1;2.3;;;;;;;;;;;;;
2020/01/06 02:03:54;;;;;;;4;2.3;;;;;;;;;;;;;
2020/01/06 02:06:42;;;;;;;3.5;2;;;;;;;;;;;;;
2020/01/06 02:09:07;;;;;;;3.8;2.5;;;;;;;;;;;;;
2020/01/06 02:11:33;;;;;;;4;2.4;;;;;;;;;;;;;
2020/01/06 02:13:58;;;;;;;3.9;2.4;;;;;;;;;;;;;
2020/01/06 02:16:23;;;;;;;3.9;2.5;;;;;;;;;;;;;
2020/01/06 02:18:48;;;;;;;3;2.2;;;;;;;;;;;;;
2020/01/06 02:21:13;;;;;;;2.6;1.6;;;;;;;;;;;;;
2020/01/06 02:23:38;;;;;;;3.6;2.1;;;;;;;;;;;;;
2020/01/06 02:26:39;;;;;;;5.4;2.7;;;;;;;;;;;;;
2020/01/06 02:28:29;;;;;;;4.5;2.9;;;;;;;;;;;;;
2020/01/06 02:30:54;;;;;;;3.9;2.5;;;;;;;;;;;;;
2020/01/06 02:33:19;;;;;;;5.1;2.5;;;;;;;;;;;;;
2020/01/06 02:35:44;;;;;;;5.4;2.9;;;;;;;;;;;;;
2020/01/06 02:38:09;;;;;;;4;2.4;;;;;;;;;;;;;
2020/01/06 02:40:34;;;;;;;8.4;7.5;;;;;;;;;;;;;
2020/01/06 02:42:59;;;;;;;6.3;3.4;;;;;;;;;;;;;
2020/01/06 02:45:24;;;;;;;5.1;2.8;;;;;;;;;;;;;
2020/01/06 02:47:49;;;;;;;5.1;3;;;;;;;;;;;;;
2020/01/06 02:50:14;;;;;;;7.6;3.7;;;;;;;;;;;;;
2020/01/06 02:52:39;;;;;;;7.4;4;;;;;;;;;;;;;
2020/01/06 02:55:05;;;;;;;7.6;4.5;;;;;;;;;;;;;
2020/01/06 02:57:30;;;;;;;6.7;3.4;;;;;;;;;;;;;
2020/01/06 02:59:55;;;;;;;6.2;3.1;;;;;;;;;;;;;
2020/01/06 03:02:20;;;;;;;6.1;2.7;;;;;;;;;;;;;
2020/01/06 03:04:45;;;;;;;5;3.1;;;;;;;;;;;;;
2020/01/06 03:07:10;;;;;;;4.7;2.8;;;;;;;;;;;;;
2020/01/06 03:09:36;;;;;;;6.5;3.2;;;;;;;;;;;;;
2020/01/06 03:12:01;;;;;;;6.4;3.4;;;;;;;;;;;;;
2020/01/06 03:14:26;;;;;;;6.3;3.3;;;;;;;;;;;;;
2020/01/06 03:16:51;;;;;;;7;3.9;;;;;;;;;;;;;
2020/01/06 03:19:16;;;;;;;4.3;2.6;;;;;;;;;;;;;
2020/01/06 03:21:41;;;;;;;5.3;2.7;;;;;;;;;;;;;
2020/01/06 03:24:06;;;;;;;5.1;2.8;;;;;;;;;;;;;
2020/01/06 03:26:32;;;;;;;3.6;2;;;;;;;;;;;;;
2020/01/06 03:28:57;;;;;;;5.6;1.9;;;;;;;;;;;;;
2020/01/06 03:31:22;;;;;;;3.1;1.8;;;;;;;;;;;;;
2020/01/06 03:33:47;;;;;;;4.2;2.1;;;;;;;;;;;;;
2020/01/06 03:36:12;;;;;;;3.8;1.7;;;;;;;;;;;;;
2020/01/06 03:38:37;;;;;;;3.3;2.1;;;;;;;;;;;;;
2020/01/06 03:41:02;;;;;;;5;2.3;;;;;;;;;;;;;
2020/01/06 03:43:27;;;;;;;4.7;2.6;;;;;;;;;;;;;
2020/01/06 03:45:52;;;;;;;3.7;2.6;;;;;;;;;;;;;
2020/01/06 03:48:17;;;;;;;6;3.9;;;;;;;;;;;;;
2020/01/06 03:50:42;;;;;;;4.4;2.7;;;;;;;;;;;;;
2020/01/06 03:53:08;;;;;;;4.3;2.1;;;;;;;;;;;;;
2020/01/06 03:55:33;;;;;;;3.7;2.1;;;;;;;;;;;;;
2020/01/06 03:57:58;;;;;;;2.8;1.8;;;;;;;;;;;;;
2020/01/06 04:03:07;;;;;;;2;1.3;;;;;;;-0.36;73.69043;949.9645;;;;
2020/01/06 04:05:26;;;;;;;2.4;1.4;;;;;;;-0.19;72.31738;949.9572;;;;
2020/01/06 04:07:51;;;;;;;2.6;1.8;;;;;;;-0.26;74.23047;949.9824;;;;
2020/01/06 04:10:17;;;;;;;2.1;1.3;;;;;;;0.01;69.87988;949.995;;;;
2020/01/06 04:12:42;;;;;;;2.7;1.7;;;;;;;0.2;72.07227;949.9434;;;;
2020/01/06 04:15:07;;;;;;;3.4;2.1;;;;;;;-0.15;74.54102;949.9747;;;;
2020/01/06 04:17:32;;;;;;;3.5;1.9;;;;;;;-0.22;75.45215;949.9498;;;;
2020/01/06 04:19:57;;;;;;;3.6;1.9;;;;;;;-0.36;75.83984;949.8906;;;;
2020/01/06 04:22:23;;;;;;;7.2;6.5;;;;;;;-0.22;75.98828;949.9182;;;;
2020/01/06 04:24:48;;;;;;;9.8;8.8;;;;;;;-0.35;76.29785;949.9264;;;;
2020/01/06 04:27:13;;;;;;;8;4.4;;;;;;;-0.66;78.04395;949.9256;;;;
2020/01/06 04:29:38;;;;;;;5.2;3.1;;;;;;;-0.77;79.18945;949.848;;;;
2020/01/06 04:32:04;;;;;;;5.9;3.3;;;;;;;-0.85;78.78516;949.9036;;;;
2020/01/06 04:34:28;;;;;;;6.1;3.5;;;;;;;-0.83;78.3457;949.8453;;;;
2020/01/06 04:36:54;;;;;;;5.5;3.4;;;;;;;-0.9;78.62012;949.7509;;;;
2020/01/06 04:39:19;;;;;;;6.6;3.5;;;;;;;-1.01;79.09961;949.9147;;;;
2020/01/06 04:41:44;;;;;;;6.1;3.4;;;;;;;-1.11;79.08301;949.7483;;;;
2020/01/06 04:44:09;;;;;;;8.4;3.8;;;;;;;-1.13;79.4668;949.7775;;;;
2020/01/06 04:46:35;;;;;;;6.5;3.6;;;;;;;-1.22;79.76074;949.8948;;;;
2020/01/06 04:49:00;;;;;;;8.1;4.2;;;;;;;-1.22;79.87109;949.9473;;;;
2020/01/06 04:51:25;;;;;;;6.2;3.7;;;;;;;-1.23;79.5498;949.9391;;;;
2020/01/06 04:53:50;;;;;;;8.3;3.7;;;;;;;-1.17;79.61523;949.8909;;;;
2020/01/06 04:56:15;;;;;;;7.3;4;;;;;;;-1.16;79.73926;949.8594;;;;
2020/01/06 04:58:40;;;;;;;8.9;3.5;;;;;;;-1.17;79.30371;949.9091;;;;
2020/01/06 05:01:05;;;;;;;8.2;3.7;;;;;;;-1.07;79.22266;949.8591;;;;
2020/01/06 05:03:30;;;;;;;4.5;2.8;;;;;;;-1.03;77.75195;949.8214;;;;
2020/01/06 05:05:55;;;;;;;4.7;2.7;;;;;;;-0.97;76.66309;949.8275;;;;
2020/01/06 05:08:20;;;;;;;5;2.3;;;;;;;-0.85;75.90625;949.8039;;;;
2020/01/06 05:10:45;;;;;;;4;2.4;;;;;;;-0.75;75.15723;949.755;;;;
2020/01/06 05:13:11;;;;;;;5.6;3.1;;;;;;;-0.66;75.47363;949.7757;;;;
2020/01/06 05:15:36;;;;;;;3.6;1.8;;;;;;;-0.61;73.92578;949.7402;;;;
2020/01/06 05:18:01;;;;;;;2.8;1.9;;;;;;;-0.51;73.83008;949.6511;;;;
2020/01/06 05:20:26;;;;;;;4.1;2.3;;;;;;;-0.44;73.19727;949.68;;;;
2020/01/06 05:22:51;;;;;;;3.8;2;;;;;;;-0.5;73.20996;949.6658;;;;
2020/01/06 05:25:17;;;;;;;3.2;1.8;;;;;;;-0.54;72.70215;949.639;;;;
2020/01/06 05:27:42;;;;;;;4.1;2.2;;;;;;;-0.47;72.86035;949.627;;;;
2020/01/06 05:30:08;;;;;;;5.5;1.8;;;;;;;-0.44;71.58398;949.6222;;;;
2020/01/06 05:32:33;;;;;;;3.9;2.2;;;;;;;-0.34;72.16895;949.5192;;;;
2020/01/06 05:34:58;;;;;;;4.4;2.7;;;;;;;-0.47;73.78223;949.6188;;;;
2020/01/06 05:37:23;;;;;;;5.4;2.9;;;;;;;-0.8;76.40527;949.56;;;;
2020/01/06 05:39:48;;;;;;;4.7;2.9;;;;;;;-0.93;76.4043;949.67;;;;
2020/01/06 05:42:13;;;;;;;6.3;2.8;;;;;;;-0.96;76.64258;949.6725;;;;
2020/01/06 05:44:38;;;;;;;4.6;2.8;;;;;;;-1.03;76.81836;949.6969;;;;
2020/01/06 05:47:03;;;;;;;4.5;2.8;;;;;;;-1.09;77.38574;949.707;;;;
2020/01/06 05:49:28;;;;;;;5.1;2.7;;;;;;;-1.13;77.40039;949.7062;;;;
2020/01/06 05:51:53;;;;;;;3.8;2.2;;;;;;;-1.15;77.36328;949.7573;;;;
2020/01/06 05:54:41;;;;;;;4.4;2.2;;;;;;;-1.16;76.52832;949.6456;;;;
2020/01/06 05:56:48;;;;;;;4.6;2;;;;;;;-0.98;75.2168;949.6905;;;;
2020/01/06 05:59:11;;;;;;;4.7;2.1;;;;;;;-0.92;74.88379;949.6257;;;;
2020/01/06 06:01:34;;;;;;;4.8;2.2;;;;;;;-0.94;75.08008;949.7375;;;;
2020/01/06 06:03:59;;;;;;;5.3;2.8;;;;;;;-0.95;75.21191;949.7017;;;;
2020/01/06 06:06:24;;;;;;;15.7;9.8;;;;;;;-1;75.81152;949.7194;;;;
2020/01/06 06:08:49;;;;;;;13;8.7;;;;;;;-1.14;76.25391;949.6774;;;;
2020/01/06 06:11:14;;;;;;;10.8;6.6;;;;;;;-1.12;76.46973;949.6361;;;;
2020/01/06 06:13:39;;;;;;;11.6;6.8;;;;;;;-1.11;75.68262;949.6833;;;;
2020/01/06 06:16:04;;;;;;;5.5;3.2;;;;;;;-1.07;75.20215;949.7672;;;;
2020/01/06 06:18:29;;;;;;;6.2;3.4;;;;;;;-1.08;75.8877;949.7415;;;;
2020/01/06 06:20:54;;;;;;;7.5;4.7;;;;;;;-1.1;76.10547;949.695;;;;
2020/01/06 06:23:20;;;;;;;7.8;4.4;;;;;;;-1.17;76.12695;949.6668;;;;
2020/01/06 06:25:46;;;;;;;6.8;4.6;;;;;;;-1.26;76.49902;949.6384;;;;
2020/01/06 06:28:11;;;;;;;6.3;3.9;;;;;;;-1.38;77.37598;949.5653;;;;
2020/01/06 06:30:36;;;;;;;7.4;3.4;;;;;;;-1.29;77.03711;949.546;;;;
2020/01/06 06:33:01;;;;;;;7.4;3.5;;;;;;;-1.22;77.48535;949.5711;;;;
2020/01/06 06:35:27;;;;;;;3;1.8;;;;;;;-1.1;71.78516;949.6244;;;;
2020/01/06 06:37:52;;;;;;;3.5;1.9;;;;;;;-0.69;70.12109;949.5934;;;;
2020/01/06 06:40:17;;;;;;;5.7;2.8;;;;;;;-0.65;71.95117;949.6397;;;;
2020/01/06 06:42:42;;;;;;;6;3.1;;;;;;;-0.86;73.98145;949.6286;;;;
2020/01/06 06:45:08;;;;;;;4.5;3;;;;;;;-0.99;74.80566;949.6535;;;;
2020/01/06 06:47:33;;;;;;;5.8;2.8;;;;;;;-0.98;74.0498;949.7111;;;;
2020/01/06 06:49:58;;;;;;;4.1;2.1;;;;;;;-0.95;72.94336;949.6602;;;;
2020/01/06 06:52:24;;;;;;;6.5;2.8;;;;;;;-0.92;73.64941;949.6606;;;;
2020/01/06 06:54:49;;;;;;;5.6;2.8;;;;;;;-0.89;73.6084;949.7256;;;;
2020/01/06 06:57:14;;;;;;;4.5;2.6;;;;;;;-0.87;72.96777;949.7321;;;;
2020/01/06 06:59:40;;;;;;;8.3;3.9;;;;;;;-0.88;73.71191;949.7158;;;;
2020/01/06 07:02:05;;;;;;;9.9;5.6;;;;;;;-0.8;74.00391;949.6616;;;;
2020/01/06 07:04:30;;;;;;;8.7;4.5;;;;;;;-0.98;73.60547;949.6948;;;;
2020/01/06 07:06:55;;;;;;;4.6;2.9;;;;;;;-0.96;71.86523;949.6937;;;;
2020/01/06 07:09:20;;;;;;;7.6;2.5;;;;;;;-0.71;69.95117;949.6092;;;;
2020/01/06 07:11:45;;;;;;;4.2;2.4;;;;;;;-0.52;68.52344;949.6383;;;;
2020/01/06 07:14:11;;;;;;;3.6;2.4;;;;;;;-0.48;68.73145;949.6529;;;;
2020/01/06 07:16:36;;;;;;;4;2.6;;;;;;;-0.42;68.59473;949.6436;;;;
2020/01/06 07:19:02;;;;;;;3.8;2.2;;;;;;;-0.32;67.55371;949.6824;;;;
2020/01/06 07:21:27;;;;;;;7.4;4.5;;;;;;;-0.36;69.89648;949.7128;;;;
2020/01/06 07:24:03;;;;;;;7.8;5;;;;;;;-0.47;71.36914;949.677;;;;
2020/01/06 07:26:21;;;;;;;6.8;4.4;;;;;;;-0.62;71.26465;949.7075;;;;
2020/01/06 07:28:43;;;;;;;6.7;4.8;;;;;;;-0.75;72.65527;949.7369;;;;
2020/01/06 07:31:09;;;;;;;9.2;6;;;;;;;-0.87;73.56836;949.7498;;;;
2020/01/06 07:33:35;;;;;;;9.3;5;;;;;;;-0.9;72.73926;949.6837;;;;
2020/01/06 07:36:00;;;;;;;5.7;4;;;;;;;-1;72.61133;949.6928;;;;
2020/01/06 07:38:25;;;;;;;6.8;4.7;;;;;;;-0.99;74.16992;949.7282;;;;
2020/01/06 07:40:51;;;;;;;6.9;4.3;;;;;;;-1;73.72461;949.6747;;;;
2020/01/06 07:43:16;;;;;;;7.6;4.9;;;;;;;-0.91;74.25098;949.6083;;;;
2020/01/06 07:45:42;;;;;;;7;4.4;;;;;;;-0.9;73.49707;949.6715;;;;
2020/01/06 07:48:08;;;;;;;8.3;6.1;;;;;;;-0.89;74.27637;949.6344;;;;
2020/01/06 07:50:33;;;;;;;8.6;6.5;;;;;;;-0.8;73.10352;949.652;;;;
2020/01/06 07:52:59;;;;;;;12.5;7.1;;;;;;;-0.72;72.62598;949.6432;;;;
2020/01/06 07:55:24;;;;;;;11.6;7.2;;;;;;;-0.8;71.78027;949.6858;;;;
2020/01/06 07:57:49;;;;;;;11.2;7.5;;;;;;;-0.72;71.98145;949.6417;;;;
2020/01/06 08:00:14;;;;;;;10.9;7.1;;;;;;;-0.7;72.43066;949.6722;;;;
2020/01/06 08:02:40;;;;;;;13.5;9.4;;;;;;;-0.77;73.73047;949.6041;;;;
2020/01/06 08:05:05;;;;;;;11.5;8.1;;;;;;;-0.59;72.87012;949.5829;;;;
2020/01/06 08:07:31;;;;;;;13.7;8.9;;;;;;;-0.54;72.50293;949.5845;;;;
2020/01/06 08:09:56;;;;;;;11.1;7.9;;;;;;;-0.69;72.30859;949.6031;;;;
2020/01/06 08:12:21;;;;;;;15.4;8.3;;;;;;;-0.47;73.2373;949.5413;;;;
2020/01/06 08:14:46;;;;;;;13;9.2;;;;;;;0.55;70.37012;949.5911;;;;
2020/01/06 08:17:11;;;;;;;9.5;5.9;;;;;;;2.16;62.96777;949.434;;;;
2020/01/06 08:19:37;;;;;;;4.6;3.2;;;;;;;3.65;56.44922;949.3934;;;;
2020/01/06 08:22:02;;;;;;;5.5;3.5;;;;;;;4.75;52.30273;949.3395;;;;
2020/01/06 08:24:27;;;;;;;8.8;6.2;;;;;;;5.76;50.14648;949.278;;;;
2020/01/06 08:26:53;;;;;;;10.9;6.4;;;;;;;5.59;49.87793;949.3409;;;;
2020/01/06 08:29:18;;;;;;;7.8;5.4;;;;;;;5.68;48.54395;949.3256;;;;
2020/01/06 08:31:43;;;;;;;4.3;2.8;;;;;;;6.33;45.34961;949.2678;;;;
2020/01/06 08:34:09;;;;;;;9.1;3.2;;;;;;;7.25;44.00879;949.2541;;;;
2020/01/06 08:36:34;;;;;;;11.3;7.4;;;;;;;7.64;44.51367;949.1928;;;;
2020/01/06 08:38:59;;;;;;;7.8;4.7;;;;;;;7.74;42.95801;949.2029;;;;
2020/01/06 08:41:24;;;;;;;7.5;3.6;;;;;;;7.12;42.29688;949.1323;;;;
2020/01/06 08:43:50;;;;;;;11.5;6.9;;;;;;;7.32;44.14063;949.1777;;;;
2020/01/06 08:46:15;;;;;;;13.8;8.7;;;;;;;7.88;43.42676;949.1602;;;;
2020/01/06 08:48:41;;;;;;;13.8;8.8;;;;;;;8.46;41.81445;949.1663;;;;
2020/01/06 08:51:06;;;;;;;11.8;6.1;;;;;;;7.32;42.31641;949.1556;;;;
2020/01/06 08:53:31;;;;;;;14.4;7.6;;;;;;;6.14;46.73242;949.1809;;;;
2020/01/06 08:55:56;;;;;;;19.1;9.1;;;;;;;5.04;50.5127;949.1103;;;;
2020/01/06 08:58:21;;;;;;;15.1;9.4;;;;;;;4.03;53.42871;949.1573;;;;
2020/01/06 09:00:46;;;;;;;18.1;9.5;;;;;;;3.18;56.94824;949.1686;;;;
2020/01/06 09:03:12;;;;;;;16.4;8.8;;;;;;;2.68;59.15527;949.2078;;;;
2020/01/06 09:05:37;;;;;;;19.5;10;;;;;;;2.43;60.47754;949.1845;;;;
2020/01/06 09:08:02;;;;;;;26.4;14.5;;;;;;;2.04;62.33594;949.2386;;;;
2020/01/06 09:10:28;;;;;;;20.8;12;;;;;;;1.65;63.18457;949.204;;;;
2020/01/06 09:12:52;;;;;;;19.6;10.3;;;;;;;1.41;63.875;949.2339;;;;
2020/01/06 09:15:19;;;;;;;23.7;10.1;;;;;;;1.36;64.88379;949.1777;;;;
2020/01/06 09:17:44;;;;;;;20.5;8.7;;;;;;;1.4;65.10352;949.0734;;;;
2020/01/06 09:20:09;;;;;;;16.8;8.5;;;;;;;1.41;65.12695;949.0974;;;;
2020/01/06 09:22:34;;;;;;;19.8;9;;;;;;;1.44;64.74023;949.0125;;;;
2020/01/06 09:24:59;;;;;;;18.3;9.5;;;;;;;1.49;64.44629;949.043;;;;
2020/01/06 09:27:24;;;;;;;20.4;10.2;;;;;;;1.51;63.28613;949.0488;;;;
2020/01/06 09:29:49;;;;;;;21.4;10.1;;;;;;;1.44;64.14746;948.9984;;;;
2020/01/06 09:32:14;;;;;;;16.2;8.9;;;;;;;1.51;63.77832;948.9531;;;;
2020/01/06 09:34:39;;;;;;;23.2;7.9;;;;;;;1.68;64.29492;948.9637;;;;
2020/01/06 09:37:04;;;;;;;28.9;8.4;;;;;;;1.85;64.35449;948.942;;;;
2020/01/06 09:39:30;;;;;;;26.5;7.5;;;;;;;2.03;63.6543;948.9031;;;;
2020/01/06 09:41:55;;;;;;;23.1;9.1;;;;;;;2.03;63.75488;948.8773;;;;
2020/01/06 09:44:20;;;;;;;22.2;8.7;;;;;;;2.03;62.63574;948.85;;;;
2020/01/06 09:46:46;;;;;;;17.3;8;;;;;;;2.17;61.79395;948.8365;;;;
2020/01/06 09:49:14;;;;;;;25.1;8.2;;;;;;;2.18;62.37891;948.8223;;;;
2020/01/06 09:51:47;;;;;;;40.2;8.1;;;;;;;2.4;61.63867;948.7864;;;;
2020/01/06 09:56:49;;;;;;;29.1;6.4;;;;;;;2.55;60.0332;948.7268;;;;
2020/01/06 09:59:02;;;;;;;21.1;6;;;;;;;2.61;59.72852;948.6242;;;;
2020/01/06 10:01:17;;;;;;;13.1;5.7;;;;;;;2.71;59.48633;948.5971;;;;
2020/01/06 10:03:42;;;;;;;16.4;5.2;;;;;;;2.7;59.64063;948.561;;;;
2020/01/06 10:06:07;;;;;;;20.6;5.8;;;;;;;2.82;59.08496;948.5954;;;;
2020/01/06 10:08:32;;;;;;;22.3;5.3;;;;;;;2.85;58.01172;948.5427;;;;
2020/01/06 10:10:58;;;;;;;25.5;4.9;;;;;;;3.01;57.87891;948.4558;;;;
2020/01/06 10:13:23;;;;;;;16.2;3.9;;;;;;;3.15;55.75293;948.4348;;;;
2020/01/06 10:15:48;;;;;;;22.2;4.9;;;;;;;3.32;57.19141;948.4216;;;;
2020/01/06 10:18:13;;;;;;;12.2;5.2;;;;;;;3.44;56.14063;948.3582;;;;
2020/01/06 10:20:39;;;;;;;27.3;5;;;;;;;3.59;54.53027;948.3752;;;;
2020/01/06 10:23:04;;;;;;;16.2;4.7;;;;;;;3.71;55.91699;948.3422;;;;
2020/01/06 10:25:29;;;;;;;28.3;5.2;;;;;;;3.76;53.67578;948.248;;;;
2020/01/06 10:27:55;;;;;;;11.2;4.3;;;;;;;3.85;52.43945;948.2586;;;;
2020/01/06 10:30:20;;;;;;;16.7;4.9;;;;;;;3.91;53.03223;948.1149;;;;
2020/01/06 10:32:45;;;;;;;13.1;4.5;;;;;;;4.03;50.44922;948.1496;;;;
2020/01/06 10:35:10;;;;;;;29.1;5.8;;;;;;;4.2;51.05273;948.1633;;;;
2020/01/06 10:37:35;;;;;;;19.7;5.5;;;;;;;4.31;49.08691;948.0857;;;;
2020/01/06 10:40:00;;;;;;;10.3;3.4;;;;;;;4.24;47.18848;948.0458;;;;
2020/01/06 10:42:26;;;;;;;11.2;4.3;;;;;;;4.32;48.60352;948.068;;;;
2020/01/06 10:44:51;;;;;;;14.1;4.3;;;;;;;4.43;49.12402;948.0178;;;;
2020/01/06 10:47:16;;;;;;;27.9;5.4;;;;;;;4.65;49.10254;947.903;;;;
2020/01/06 10:49:41;;;;;;;16.2;4.1;;;;;;;4.72;48.53613;947.9022;;;;
2020/01/06 10:52:06;;;;;;;10.6;3.3;;;;;;;4.8;47.88086;947.8217;;;;
2020/01/06 10:54:32;;;;;;;10.2;3.5;;;;;;;4.96;47.24512;947.8569;;;;
2020/01/06 10:56:57;;;;;;;28.9;4.1;;;;;;;5.02;45.30273;947.7975;;;;
2020/01/06 10:59:22;;;;;;;13.5;3.3;;;;;;;4.99;43.25781;947.7735;;;;
2020/01/06 11:01:47;;;;;;;7.9;3;;;;;;;4.93;45.00977;947.7813;;;;
2020/01/06 11:04:13;;;;;;;13.4;3;;;;;;;5.05;45.83496;947.7421;;;;
2020/01/06 11:06:38;;;;;;;33.6;4.2;;;;;;;5.13;46.20508;947.632;;;;
2020/01/06 11:09:03;;;;;;;23;4.3;;;;;;;5.21;45.7168;947.6674;;;;
2020/01/06 11:11:28;;;;;;;19.2;3.8;;;;;;;5.38;46.42383;947.5959;;;;
2020/01/06 11:13:53;;;;;;;12.4;3.1;;;;;;;5.49;44.99023;947.5734;;;;
2020/01/06 11:16:18;;;;;;;20.2;3.9;;;;;;;5.67;46.22852;947.5577;;;;
2020/01/06 11:18:44;;;;;;;10;2.9;;;;;;;5.76;45.31348;947.5552;;;;
2020/01/06 11:21:09;;;;;;;10;3.2;;;;;;;5.74;44.58887;947.4872;;;;
2020/01/06 11:23:34;;;;;;;10.6;2.6;;;;;;;5.86;44.84961;947.415;;;;
2020/01/06 11:26:00;;;;;;;11.6;2.9;;;;;;;5.98;44.4668;947.4378;;;;
2020/01/06 11:28:25;;;;;;;8.6;2.6;;;;;;;6.07;44.3291;947.3917;;;;
2020/01/06 11:30:50;;;;;;;8.4;2.5;;;;;;;6.27;43.5127;947.4224;;;;
2020/01/06 11:33:31;;;;;;;12.6;3.3;;;;;;;6.37;43.30762;947.3591;;;;
2020/01/06 11:35:41;;;;;;;10.2;3.5;;;;;;;6.4;44.79199;947.3477;;;;
2020/01/06 11:38:17;;;;;;;6.8;2.5;;;;;;;6.47;44.52832;947.3318;;;;
2020/01/06 11:40:32;;;;;;;3.9;1.9;;;;;;;6.56;44.07422;947.2664;;;;
2020/01/06 11:43:42;;;;;;;5;2;;;;;;;6.65;42.91797;947.2867;;;;
2020/01/06 11:45:21;;;;;;;4.1;1.9;;;;;;;6.57;43.59961;947.2976;;;;
2020/01/06 11:48:09;;;;;;;6.2;1.5;;;;;;;6.64;42.08984;947.2649;;;;
2020/01/06 11:52:37;;;;;;;4.6;1.9;;;;;;;6.74;43.1875;947.3044;;;;
2020/01/06 11:55:02;;;;;;;4.9;1.7;;;;;;;6.76;44.80762;947.2317;;;;
2020/01/06 11:57:27;;;;;;;3.6;1.5;;;;;;;6.87;44.15137;947.2648;;;;
2020/01/06 11:59:52;;;;;;;4;1.4;;;;;;;6.91;45.00488;947.1892;;;;
2020/01/06 12:02:18;;;;;;;4.4;1.4;;;;;;;6.91;46.49902;947.1775;;;;
2020/01/06 12:04:43;;;;;;;5.1;1.9;;;;;;;6.94;45.2002;947.1359;;;;
2020/01/06 12:07:08;;;;;;;3.9;1.4;;;;;;;6.96;46.13086;947.1011;;;;
2020/01/06 12:09:34;;;;;;;3.3;1.3;;;;;;;7.01;44.52832;946.9551;;;;
2020/01/06 12:11:59;;;;;;;3.7;1.4;;;;;;;7.14;43.03418;947.0428;;;;
2020/01/06 12:14:24;;;;;;;8.1;3.4;;;;;;;7.11;44.0752;946.9952;;;;
2020/01/06 12:16:49;;;;;;;5.5;2.2;;;;;;;7.19;43.64063;946.9774;;;;
2020/01/06 12:19:14;;;;;;;7.8;2.7;;;;;;;7.25;44.47266;946.9641;;;;
2020/01/06 12:21:40;;;;;;;4.6;2.2;;;;;;;7.26;41.6875;946.9288;;;;
2020/01/06 12:24:05;;;;;;;4;1.8;;;;;;;7.18;43.12891;946.9216;;;;
2020/01/06 12:26:30;;;;;;;3.9;2.1;;;;;;;7.27;43.03613;946.8458;;;;
2020/01/06 12:28:55;;;;;;;7.1;2.6;;;;;;;7.41;42.75488;946.8641;;;;
2020/01/06 12:31:20;;;;;;;6.7;2.5;;;;;;;7.53;43.11914;946.745;;;;
2020/01/06 12:33:45;;;;;;;3.4;1.5;;;;;;;7.48;43.02344;946.7999;;;;
2020/01/06 12:36:11;;;;;;;5;1.9;;;;;;;7.4;41.8252;946.8481;;;;
2020/01/06 12:38:36;;;;;;;4.4;1.3;;;;;;;7.27;40.6123;946.7826;;;;
2020/01/06 12:41:01;;;;;;;4.6;1.3;;;;;;;7.09;41.78418;946.7639;;;;
2020/01/06 12:43:26;;;;;;;3;1.3;;;;;;;7.19;42.58691;946.6772;;;;
2020/01/06 12:45:51;;;;;;;3.2;1.2;;;;;;;7.29;41.28223;946.7118;;;;
2020/01/06 12:48:17;;;;;;;2.3;1.2;;;;;;;7.31;39.51563;946.7475;;;;
2020/01/06 12:50:42;;;;;;;2.5;1.2;;;;;;;7.35;40.24512;946.7147;;;;
2020/01/06 12:53:07;;;;;;;2.5;1.1;;;;;;;7.47;38.79395;946.7019;;;;
2020/01/06 12:55:32;;;;;;;1.8;1.1;;;;;;;7.61;38.81738;946.692;;;;
2020/01/06 12:57:58;;;;;;;2.7;1;;;;;;;7.56;36.23926;946.6725;;;;
2020/01/06 13:00:23;;;;;;;2.4;1.2;;;;;;;7.59;35.59473;946.6702;;;;
2020/01/06 13:02:50;;;;;;;2.7;1.2;;;;;;;7.71;35.46875;946.7101;;;;
2020/01/06 13:05:13;;;;;;;2.8;1.3;;;;;;;7.69;34.50391;946.6566;;;;
2020/01/06 13:07:39;;;;;;;1.8;0.9;;;;;;;7.73;33.74707;946.6514;;;;
2020/01/06 13:10:04;;;;;;;1.9;1.1;;;;;;;7.75;34.71289;946.6775;;;;
2020/01/06 13:12:32;;;;;;;2.5;1.4;;;;;;;7.83;35.71777;946.6742;;;;
2020/01/06 13:14:54;;;;;;;3.9;1.2;;;;;;;7.83;34.70801;946.6821;;;;
2020/01/06 13:17:19;;;;;;;2.6;1.1;;;;;;;7.85;35.62891;946.6955;;;;
2020/01/06 13:19:44;;;;;;;1.2;0.8;;;;;;;7.89;32.22754;946.6443;;;;
2020/01/06 13:22:10;;;;;;;1.2;0.9;;;;;;;7.88;35.16504;946.7209;;;;
2020/01/06 13:24:35;;;;;;;1.6;0.9;;;;;;;7.93;36.29395;946.6997;;;;
2020/01/06 13:27:00;;;;;;;2.5;1;;;;;;;8;35.61816;946.7343;;;;
2020/01/06 13:29:26;;;;;;;2;1;;;;;;;8.19;33.85059;946.7297;;;;
2020/01/06 13:31:51;;;;;;;2.5;1.1;;;;;;;8.24;32.56055;946.7514;;;;
2020/01/06 13:36:41;;;;;;;1.7;1;;;;;;;9.48;30.12598;946.7129;;;;
2020/01/06 13:39:06;;;;;;;1.9;1.1;;;;;;;12.42;26.35156;946.6404;;;;
2020/01/06 13:41:32;;;;;;;9.9;2.8;;;;;;;14.8;26.68066;946.6621;;;;
2020/01/06 13:44:31;;;;;;;8.1;4.6;;;;;;;15.55;27.4541;946.6953;;;;
2020/01/06 13:46:21;;;;;;;28.2;6;;;;;;;16.5;26.50586;946.6049;;;;
2020/01/06 13:48:47;;;;;;;26.2;6.2;;;;;;;16.77;25.95605;946.6569;;;;
2020/01/06 13:51:12;;;;;;;22.2;6;;;;;;;15.83;26.92871;946.6096;;;;
2020/01/06 13:53:37;;;;;;;9.4;3.1;;;;;;;15.06;26.52344;946.6314;;;;
2020/01/06 13:56:02;;;;;;;10.2;2.5;;;;;;;14.51;27.52637;946.6853;;;;
2020/01/06 13:58:27;;;;;;;8.4;2.3;;;;;;;13.95;28.68848;946.6785;;;;
2020/01/06 14:00:52;;;;;;;5.7;2.4;;;;;;;13.61;29;946.6622;;;;
2020/01/06 14:03:17;;;;;;;10.7;2.9;;;;;;;13.83;29.10645;946.6644;;;;
2020/01/06 14:05:42;;;;;;;14.8;3.6;;;;;;;13.39;29.73145;946.6794;;;;
2020/01/06 14:08:08;;;;;;;16.8;3.8;;;;;;;11.44;32.88184;946.6677;;;;
2020/01/06 14:10:33;;;;;;;12.6;3.6;;;;;;;10.18;35.33008;946.6648;;;;
2020/01/06 14:12:58;;;;;;;15.5;5;;;;;;;8.86;37.74805;946.6621;;;;
2020/01/06 14:15:23;;;;;;;26.1;5.4;;;;;;;8.16;39.73047;946.6923;;;;
2020/01/06 14:17:48;;;;;;;19.3;5.2;;;;;;;7.56;41.42188;946.7042;;;;
2020/01/06 14:20:13;;;;;;;16.8;5.6;;;;;;;7.12;42.64746;946.6802;;;;
2020/01/06 14:22:38;;;;;;;27.7;7.1;;;;;;;6.84;43.97852;946.7206;;;;
2020/01/06 14:25:04;;;;;;;17.9;7.7;;;;;;;6.76;44.44531;946.6855;;;;
2020/01/06 14:27:29;;;;;;;22.8;8.5;;;;;;;6.63;44.95215;946.7045;;;;
2020/01/06 14:29:54;;;;;;;15.6;7.5;;;;;;;6.29;45.42578;946.6924;;;;
2020/01/06 14:32:19;;;;;;;16.9;7.8;;;;;;;6.19;46.08203;946.6486;;;;
2020/01/06 14:34:44;;;;;;;25.5;9.1;;;;;;;6.04;46.67578;946.616;;;;
2020/01/06 14:37:09;;;;;;;18.4;9.3;;;;;;;5.86;47.37793;946.6323;;;;
2020/01/06 14:39:35;;;;;;;21.2;7.6;;;;;;;5.57;48.23828;946.6547;;;;
2020/01/06 14:42:01;;;;;;;21.2;7.2;;;;;;;5.38;49.00781;946.6916;;;;
2020/01/06 14:44:26;;;;;;;20.4;7.6;;;;;;;5.4;49.50488;946.6458;;;;
2020/01/06 14:46:51;;;;;;;27.5;11.3;;;;;;;5.31;50.13867;946.68;;;;
2020/01/06 14:49:16;;;;;;;28.9;12.7;;;;;;;5.3;50.62207;946.7579;;;;
2020/01/06 14:51:41;;;;;;;34.7;13.6;;;;;;;5.25;51.32617;946.762;;;;
2020/01/06 14:54:06;;;;;;;33.6;12.7;;;;;;;5.25;51.98047;946.7444;;;;
2020/01/06 14:56:31;;;;;;;29.9;11.8;;;;;;;5.07;52.33008;946.7563;;;;
2020/01/06 14:58:56;;;;;;;26.9;10.9;;;;;;;5.05;52.51953;946.6497;;;;
2020/01/06 15:01:21;;;;;;;17.8;9.1;;;;;;;4.83;52.72852;946.7122;;;;
2020/01/06 15:03:46;;;;;;;46;11.6;;;;;;;4.7;53.68164;946.6895;;;;
2020/01/06 15:06:11;;;;;;;31.2;12;;;;;;;4.62;53.78418;946.6915;;;;
2020/01/06 15:08:36;;;;;;;20.7;11.8;;;;;;;4.38;54.19336;946.6856;;;;
2020/01/06 15:11:01;;;;;;;33.3;17.6;;;;;;;4.24;54.94043;946.7112;;;;
2020/01/06 15:13:27;;;;;;;55.8;24.3;;;;;;;4.31;55.42188;946.6241;;;;
2020/01/06 15:15:52;;;;;;;61.7;29.2;;;;;;;4.42;55.30176;946.6002;;;;
2020/01/06 15:18:17;;;;;;;60.8;26.7;;;;;;;4.4;55.74902;946.6948;;;;
2020/01/06 15:20:42;;;;;;;57.5;25.5;;;;;;;4.48;55.72559;946.7197;;;;
2020/01/06 15:23:11;;;;;;;72.6;30.7;;;;;;;4.5;55.70508;946.7314;;;;
2020/01/06 15:25:39;;;;;;;81.9;30.4;;;;;;;4.34;56.20215;946.6747;;;;
2020/01/06 15:29:40;;;;;;;75.8;29.5;;;;;;;4.21;56.98438;946.661;;;;
2020/01/06 15:35:15;;;;;;;70.9;33.2;;;;;;;3.76;58.89063;946.6986;;;;
2020/01/06 15:37:40;;;;;;;55.5;24.3;;;;;;;3.69;58.83594;946.7111;;;;
2020/01/06 15:40:05;;;;;;;55;24.6;;;;;;;3.78;58.96094;946.6802;;;;